NCAR-RAP Real-Time Weather Data

Output produced by METARs form (10 April 2020  05:18 UTC)
found at http://weather.rap.ucar.edu/surface/
 
KHON 100455Z AUTO 24003KT 10SM CLR M03/M06 A3019 RMK AO2 SLP239 T10281056
KHON 100355Z AUTO 24003KT 10SM CLR M02/M05 A3021 RMK AO2 SLP245 T10171050
KHON 100255Z AUTO 00000KT 10SM CLR M02/M05 A3021 RMK AO2 SLP245 T10171050 53006
KHON 100155Z AUTO 35004KT 10SM CLR 00/M06 A3020 RMK AO2 SLP241 T00001061
KHON 100055Z AUTO 35009KT 10SM CLR 02/M06 A3020 RMK AO2 SLP239 T00221061
KHON 092355Z AUTO 33011G20KT 10SM FEW048 03/M07 A3019 RMK AO2 SLP237 T00331072 10044 20006 55003
KHON 092255Z AUTO 36015G24KT 10SM FEW050 04/M08 A3019 RMK AO2 SLP234 T00391078
KHON 092155Z AUTO 34018G26KT 10SM BKN050 04/M08 A3019 RMK AO2 PK WND 34029/2128 SLP235 T00391083
KHON 092055Z AUTO 35019G27KT 10SM BKN050 03/M08 A3020 RMK AO2 PK WND 35030/2028 SLP239 T00331078 51007
KHON 091955Z AUTO 33020G32KT 10SM BKN048 03/M08 A3020 RMK AO2 PK WND 32034/1904 SLP240 T00281083
KHON 091855Z AUTO 33021G34KT 10SM BKN044 02/M08 A3019 RMK AO2 PK WND 34034/1848 SLP236 T00221083
KHON 091755Z AUTO 34025G35KT 10SM BKN040 01/M08 A3018 RMK AO2 PK WND 34038/1702 SLP233 60000 T00111078 10017 21006 51030
KHON 091655Z AUTO 35025G36KT 10SM BKN042 01/M08 A3016 RMK AO2 PK WND 33039/1611 SLP227 T00061083
KHON 091555Z AUTO 33026G41KT 10SM SCT032 BKN045 BKN065 00/M07 A3013 RMK AO2 PK WND 32045/1510 RAB13E14SNB14E23 SLP217 P0000 T00001072
KHON 091455Z AUTO 33025G35KT 10SM BKN039 BKN050 BKN080 01/M07 A3009 RMK AO2 PK WND 32038/1405 SLP200 T00111067 51020
KHON 091355Z AUTO 33027G37KT 10SM BKN070 01/M06 A3007 RMK AO2 PK WND 32037/1349 SLP195 T00111061
KHON 091255Z AUTO 32020G28KT 10SM BKN075 01/M06 A3005 RMK AO2 PK WND 31028/1253 SLP186 T00061056
KHON 091155Z AUTO 32018G28KT 10SM CLR 01/M06 A3003 RMK AO2 PK WND 31030/1131 SLP178 T00061056 10028 20006 53009
KHON 091055Z AUTO 30016KT 10SM SCT085 02/M05 A2999 RMK AO2 PK WND 30026/1040 SLP166 T00171050
KHON 090955Z AUTO 29015G23KT 10SM CLR 02/M05 A3000 RMK AO2 SLP165 T00221050
KHON 090855Z AUTO 29014KT 10SM CLR 02/M04 A3000 RMK AO2 SLP166 T00221044 56007
KHON 090755Z AUTO 28013KT 10SM CLR 02/M04 A3000 RMK AO2 SLP168 T00171039
KHON 090655Z AUTO 29013KT 10SM CLR 02/M04 A3001 RMK AO2 SLP172 T00171039